Nearby METAR Reports

 

KLBE - Latrobe/Westmorl, Pennsylvania, USA
Distance from station: SE 16mi, 26km
Updated: Wed, 30-Jul-2014 10:55pm EDT
Partly cloudy
Partly cloudy
 Wind from calm
Wind: Calm
Temperature: 61°F , 16°C
Dew Point: 61°F , 16°C
Humidity: 100%
Barometer: 30.09 inHg , 1019 hPa
Clouds: Partly cloudy
Visibility: 10 miles , 16 km
Cloud details: Partly cloudy 8000 ft
2014/07/31 02:55 KLBE 310255Z AUTO 00000KT 10SM SCT080 16/16 A3009 RMK A02 LTG DSNT SE AND S P000
KAGC - Pittsburgh/Alleg, Pennsylvania, USA
Distance from station: WSW 18mi, 30km
Updated: Wed, 30-Jul-2014 10:53pm EDT
Mostly cloudy
Mostly cloudy
 Wind from SSE
Wind: SSE 7 mph , 11 km/h
Temperature: 59°F , 15°C
Dew Point: 55°F , 13°C
Humidity: 88%
Barometer: 30.06 inHg , 1017.9 hPa
Clouds: Mostly cloudy
Visibility: 7 miles , 11 km
Cloud details: Mostly cloudy 11000 ft
2014/07/31 02:53 KAGC 310253Z AUTO 16006KT 7SM BKN110 15/13 A3006 RMK AO2 SLP181 T01500133 53005 TSNO
 
KBTP - Butler Co., Pennsylvania, USA
Distance from station: NW 29mi, 47km
Updated: Wed, 30-Jul-2014 11:15pm EDT
Overcast
Overcast
 Wind from S
Wind: S 6 mph , 9 km/h
Temperature: 61°F , 16°C
Dew Point: 55°F , 13°C
Humidity: 83%
Barometer: 30.08 inHg , 1018.6 hPa
Clouds: Overcast
Visibility: 10 miles , 16 km
Cloud details: Overcast 11000 ft
2014/07/31 03:15 KBTP 310315Z AUTO 17005KT 10SM OVC110 16/13 A3008 RMK AO1
KIDI - Indiana/Stewart, Pennsylvania, USA
Distance from station: ENE 29mi, 47km
Updated: Wed, 30-Jul-2014 11:15pm EDT
Overcast
Overcast
 Wind from calm
Wind: Calm
Temperature: 61°F , 16°C
Dew Point: 59°F , 15°C
Humidity: 94%
Barometer: 30.12 inHg , 1020 hPa
Clouds: Overcast
Visibility: 10 miles , 16 km
Cloud details: Partly cloudy 4400 ft
Mostly cloudy 5000 ft
Overcast 8500 ft
2014/07/31 03:15 KIDI 310315Z AUTO 00000KT 10SM SCT044 BKN050 OVC085 16/15 A3012 RMK A01
 
KPIT - Pittsburgh, Pennsylvania, USA
Distance from station: W 36mi, 57km
Updated: Wed, 30-Jul-2014 10:51pm EDT
Clear
Clear
 Wind from calm
Wind: Calm
Temperature: 61°F , 16°C
Dew Point: 57°F , 14°C
Humidity: 88%
Barometer: 30.06 inHg , 1017.9 hPa
Clouds: Clear
Visibility: 10 miles , 16 km
2014/07/31 02:51 KPIT 310251Z 00000KT 10SM CLR 16/14 A3006 RMK AO2 SLP183 T01610139 51006
KJST - Johnstown, Pennsylvania, USA
Distance from station: ESE 41mi, 66km
Updated: Wed, 30-Jul-2014 10:54pm EDT
Light rain, Mostly cloudy
Light rain, Mostly cloudy
 Wind from SW
Wind: SW 6 mph , 9 km/h
Temperature: 57°F , 14°C
Dew Point: 54°F , 12°C
Humidity: 88%
Barometer: 30.10 inHg , 1019.3 hPa
Summary: Light rain
Clouds: Mostly cloudy
Visibility: 10 miles , 16 km
Cloud details: Few Clouds 4800 ft
Mostly cloudy 8000 ft
Mostly cloudy 11000 ft
2014/07/31 02:54 KJST 310254Z AUTO 23005KT 10SM -RA FEW048 BKN080 BKN110 14/12 A3010 RMK AO2 RAB54 SLP187 P0000 60000 T01390122 50000
 
KAFJ - Washington, Pennsylvania, USA
Distance from station: WSW 42mi, 68km
Updated: Wed, 30-Jul-2014 11:15pm EDT
Overcast
Overcast
 Wind from calm
Wind: Calm
Temperature: 57°F , 14°C
Dew Point: 55°F , 13°C
Humidity: 94%
Barometer: 30.08 inHg , 1018.6 hPa
Clouds: Overcast
Visibility: 6 miles , 10 km
Cloud details: Overcast 11000 ft
2014/07/31 03:15 KAFJ 310315Z AUTO 00000KT 6SM OVC110 14/13 A3008 RMK AO1
KBVI - Beaver Falls Arp, Pennsylvania, USA
Distance from station: WNW 48mi, 77km
Updated: Wed, 30-Jul-2014 8:47pm EDT
NOT Current
Overcast
Overcast
 Wind from SSW
Wind: SSW 6 mph , 9 km/h
Temperature: 64°F , 18°C
Dew Point: 55°F , 13°C
Humidity: 73%
Barometer: 30.04 inHg , 1017.3 hPa
Clouds: Overcast
Visibility: 10 miles , 16 km
Cloud details: Overcast 11000 ft
2014/07/31 00:47 KBVI 310047Z 20005KT 10SM OVC110 18/13 A3004 RMK LAST